Time;durP1;ratioP1;P1;durP2;ratioP2;P2;SDS_P1;SDS_P2;PMS_P1;PMS_P2;Temp;Humidity;BMP_temperature;BMP_pressure;BME280_temperature;BME280_humidity;BME280_pressure;Samples;Min_cycle;Max_cycle;Signal;HPM_P1;HPM_P2
2024/03/12 00:00:06;;;;;;;92.25;30.98;;;;;;;5.65;100.00;101098.56;5076875;28;20036;-78
2024/03/12 00:02:34;;;;;;;85.72;29.63;;;;;;;5.62;100.00;101099.59;5076875;28;20023;-77
2024/03/12 00:05:05;;;;;;;78.32;30.60;;;;;;;5.62;100.00;101104.88;5096649;28;20107;-78
2024/03/12 00:07:31;;;;;;;;;;;;;;;5.63;100.00;101105.75;5096130;28;20472;-77
2024/03/12 00:09:57;;;;;;;83.35;30.35;;;;;;;5.65;100.00;101106.50;5095049;28;19912;-78
2024/03/12 00:12:22;;;;;;;96.00;30.95;;;;;;;5.67;100.00;101106.38;5095522;28;20032;-78
2024/03/12 00:14:49;;;;;;;85.30;30.60;;;;;;;5.65;100.00;101117.06;5094188;28;20369;-79
2024/03/12 00:17:14;;;;;;;82.57;29.65;;;;;;;5.67;100.00;101116.94;5076390;28;20028;-77
2024/03/12 00:19:40;;;;;;;93.47;31.10;;;;;;;5.65;100.00;101114.41;5093846;28;20034;-78
2024/03/12 00:22:07;;;;;;;68.75;29.35;;;;;;;5.65;100.00;101115.25;5058871;28;20036;-78
2024/03/12 00:24:33;;;;;;;91.22;29.63;;;;;;;5.62;100.00;101123.38;5093791;28;20108;-79
2024/03/12 00:26:59;;;;;;;82.60;30.65;;;;;;;5.59;100.00;101120.94;5075315;28;20119;-78
2024/03/12 00:29:24;;;;;;;81.80;29.80;;;;;;;5.59;100.00;101122.72;5093733;28;20106;-76
2024/03/12 00:31:51;;;;;;;74.75;30.02;;;;;;;5.59;100.00;101126.22;5093572;28;20074;-76
2024/03/12 00:34:16;;;;;;;87.28;30.25;;;;;;;5.58;100.00;101126.31;5076279;28;20028;-77
2024/03/12 00:36:43;;;;;;;80.00;27.92;;;;;;;5.60;100.00;101124.44;5093409;28;20115;-78
2024/03/12 00:39:10;;;;;;;78.25;27.92;;;;;;;5.62;100.00;101126.00;5093612;28;20032;-78
2024/03/12 00:41:35;;;;;;;78.15;26.98;;;;;;;5.61;100.00;101129.63;5093919;28;20031;-77
2024/03/12 00:44:01;;;;;;;71.90;26.73;;;;;;;5.61;100.00;101137.53;5094169;28;20337;-78
2024/03/12 00:46:26;;;;;;;70.75;25.55;;;;;;;5.60;100.00;101129.72;5075794;28;20032;-76
2024/03/12 00:48:52;;;;;;;67.63;24.52;;;;;;;5.61;100.00;101136.66;5093365;28;20035;-77
2024/03/12 00:51:18;;;;;;;76.43;25.75;;;;;;;5.59;100.00;101144.69;5093850;28;20064;-78
2024/03/12 00:53:44;;;;;;;72.50;25.38;;;;;;;5.60;100.00;101145.56;5093661;28;20464;-78
2024/03/12 00:56:10;;;;;;;59.65;23.58;;;;;;;5.61;100.00;101148.09;5093484;28;20111;-78
2024/03/12 00:58:39;;;;;;;59.65;23.63;;;;;;;5.63;100.00;101153.28;5093964;28;20079;-77
2024/03/12 01:01:04;;;;;;;57.75;22.70;;;;;;;5.61;100.00;101150.72;5093783;28;20035;-77
2024/03/12 01:03:30;;;;;;;75.60;26.17;;;;;;;5.62;100.00;101138.38;5093515;28;20028;-78
2024/03/12 01:05:56;;;;;;;58.35;24.58;;;;;;;5.63;100.00;101150.63;5093743;28;20130;-78
2024/03/12 01:08:21;;;;;;;63.92;24.13;;;;;;;5.65;100.00;101160.13;5042048;28;20031;-77
2024/03/12 01:10:47;;;;;;;52.33;22.23;;;;;;;5.65;100.00;101162.75;5093246;28;20403;-78
2024/03/12 01:13:12;;;;;;;50.78;21.35;;;;;;;5.68;100.00;101156.44;5094030;28;20032;-78
2024/03/12 01:15:39;;;;;;;48.40;20.70;;;;;;;5.70;100.00;101167.75;5093725;28;20590;-78
2024/03/12 01:18:04;;;;;;;50.35;20.55;;;;;;;5.70;100.00;101167.75;5093937;28;20077;-77
2024/03/12 01:20:33;;;;;;;55.92;21.77;;;;;;;5.69;100.00;101166.06;5093439;28;20111;-77
2024/03/12 01:22:59;;;;;;;51.42;21.48;;;;;;;5.68;100.00;101167.00;5075573;28;20502;-78
2024/03/12 01:25:29;;;;;;;52.90;20.90;;;;;;;5.67;100.00;101167.09;5093070;28;20032;-78
2024/03/12 01:27:55;;;;;;;60.35;20.65;;;;;;;5.68;100.00;101169.66;5092747;28;20040;-78
2024/03/12 01:30:26;;;;;;;52.42;21.50;;;;;;;5.69;100.00;101178.41;5093532;28;20078;-77
2024/03/12 01:32:52;;;;;;;54.33;19.97;;;;;;;5.65;100.00;101170.69;5092904;28;20020;-78
2024/03/12 01:35:20;;;;;;;55.40;21.85;;;;;;;5.66;100.00;101176.84;5074716;28;20057;-78
2024/03/12 01:37:51;;;;;;;54.53;21.02;;;;;;;5.65;100.00;101177.78;5093740;28;20088;-79
2024/03/12 01:40:30;;;;;;;65.07;21.83;;;;;;;5.60;100.00;101183.34;5096976;28;20480;-78
2024/03/12 01:43:03;;;;;;;73.40;22.33;;;;;;;5.54;100.00;101177.59;5097590;28;20085;-78
2024/03/12 01:45:30;;;;;;;56.05;21.17;;;;;;;5.49;100.00;101191.09;5097459;28;20103;-78
2024/03/12 01:48:03;;;;;;;49.28;21.70;;;;;;;5.42;100.00;101195.06;5078955;28;20032;-78
2024/03/12 01:50:31;;;;;;;61.60;23.10;;;;;;;5.40;100.00;101204.88;5096928;28;20134;-77
2024/03/12 01:52:59;;;;;;;69.38;23.83;;;;;;;5.35;100.00;101202.53;5096517;28;20043;-78
2024/03/12 01:55:26;;;;;;;62.67;22.75;;;;;;;5.32;100.00;101200.09;5097165;28;20066;-79
2024/03/12 01:57:52;;;;;;;62.90;23.85;;;;;;;5.27;100.00;101208.28;5096376;28;20038;-77
2024/03/12 02:00:17;;;;;;;71.22;25.40;;;;;;;5.26;100.00;101211.88;5096975;28;20064;-77
2024/03/12 02:02:44;;;;;;;68.10;23.98;;;;;;;5.22;100.00;101207.72;5096306;28;20129;-76
2024/03/12 02:05:11;;;;;;;83.20;25.33;;;;;;;5.20;100.00;101221.97;5096897;28;20066;-77
2024/03/12 02:07:45;;;;;;;73.00;24.35;;;;;;;5.17;100.00;101216.88;5096369;28;20028;-77
2024/03/12 02:10:12;;;;;;;77.50;25.05;;;;;;;5.14;100.00;101223.19;5077989;28;20082;-77
2024/03/12 02:12:37;;;;;;;78.15;24.48;;;;;;;5.12;100.00;101220.66;5096272;28;20024;-77
2024/03/12 02:15:04;;;;;;;70.25;24.38;;;;;;;5.14;100.00;101230.25;5096084;28;20032;-77
2024/03/12 02:17:30;;;;;;;73.45;26.02;;;;;;;5.11;100.00;101218.09;5096388;28;20042;-79
2024/03/12 02:19:56;;;;;;;86.20;25.40;;;;;;;5.10;100.00;101221.66;5078180;28;20115;-77
2024/03/12 02:22:22;;;;;;;71.47;24.13;;;;;;;5.08;100.00;101227.03;5096560;28;20019;-78
2024/03/12 02:24:49;;;;;;;71.78;24.45;;;;;;;5.07;100.00;101225.34;5077700;28;20016;-77
2024/03/12 02:27:14;;;;;;;68.47;25.48;;;;;;;5.09;100.00;101230.50;5096074;28;20141;-77
2024/03/12 02:29:40;;;;;;;61.67;22.77;;;;;;;5.09;100.00;101230.50;5096457;28;20027;-77
2024/03/12 02:32:05;;;;;;;68.50;24.08;;;;;;;5.09;100.00;101236.66;5095737;28;20020;-77
2024/03/12 02:34:31;;;;;;;54.92;22.08;;;;;;;5.08;100.00;101239.41;5095709;28;20077;-76
2024/03/12 02:36:56;;;;;;;54.05;22.92;;;;;;;5.07;100.00;101237.69;5095790;28;20093;-76
2024/03/12 02:39:22;;;;;;;62.10;23.88;;;;;;;5.08;100.00;101232.31;5077476;28;20540;-77
2024/03/12 02:41:47;;;;;;;62.40;23.25;;;;;;;5.10;100.00;101234.84;5095498;28;20101;-77
2024/03/12 02:44:12;;;;;;;55.22;22.38;;;;;;;5.11;100.00;101236.56;5095602;28;20028;-77
2024/03/12 02:46:38;;;;;;;56.92;22.63;;;;;;;5.11;100.00;101244.47;5095811;28;20417;-77
2024/03/12 02:49:03;;;;;;;55.55;21.98;;;;;;;5.12;100.00;101246.19;5060519;28;20020;-77
2024/03/12 02:51:29;;;;;;;62.08;22.77;;;;;;;5.12;100.00;101240.91;5095388;28;20027;-77
2024/03/12 02:53:54;;;;;;;64.07;21.60;;;;;;;5.13;100.00;101247.84;5095345;28;20031;-77
2024/03/12 02:56:20;;;;;;;54.40;21.52;;;;;;;5.14;100.00;101240.81;5075472;28;20028;-74
2024/03/12 02:58:47;;;;;;;54.70;20.38;;;;;;;5.15;100.00;101245.13;5093664;28;20384;-75
2024/03/12 03:01:15;;;;;;;56.10;20.27;;;;;;;5.14;100.00;101239.00;5075785;28;20024;-74
2024/03/12 03:03:41;;;;;;;55.65;21.33;;;;;;;5.16;100.00;101241.56;5094500;28;20031;-74
2024/03/12 03:06:07;;;;;;;49.25;20.23;;;;;;;5.18;100.00;101234.38;5093842;28;20036;-74
2024/03/12 03:08:32;;;;;;;64.10;20.27;;;;;;;5.18;100.00;101229.97;5076915;28;20043;-74
2024/03/12 03:10:58;;;;;;;57.35;21.67;;;;;;;5.18;100.00;101229.97;5094778;28;20052;-74
2024/03/12 03:13:23;;;;;;;53.55;20.80;;;;;;;5.18;100.00;101237.88;5093975;28;20090;-74
2024/03/12 03:15:49;;;;;;;65.82;21.85;;;;;;;5.18;100.00;101229.97;5076163;28;20500;-76
2024/03/12 03:18:14;;;;;;;56.22;20.60;;;;;;;5.17;100.00;101219.53;5094191;28;20032;-75
2024/03/12 03:20:40;;;;;;;50.10;20.10;;;;;;;5.15;100.00;101224.88;5094139;28;20073;-73
2024/03/12 03:23:05;;;;;;;50.33;20.40;;;;;;;5.16;100.00;101226.56;5094266;28;20036;-75
2024/03/12 03:25:30;;;;;;;54.28;21.38;;;;;;;5.16;100.00;101223.94;5094391;28;20501;-74
2024/03/12 03:27:56;;;;;;;48.78;19.30;;;;;;;5.16;100.00;101228.38;5076736;28;20039;-75
2024/03/12 03:30:21;;;;;;;48.55;19.90;;;;;;;5.15;100.00;101227.53;5074996;28;20405;-74
2024/03/12 03:32:47;;;;;;;52.75;18.92;;;;;;;5.18;100.00;101226.47;5093215;28;20050;-74
2024/03/12 03:35:13;;;;;;;60.00;21.08;;;;;;;5.15;100.00;101226.66;5074475;28;20412;-74
2024/03/12 03:37:41;;;;;;;57.60;19.27;;;;;;;5.16;100.00;101231.00;5093592;28;20032;-74
2024/03/12 03:40:10;;;;;;;61.95;20.92;;;;;;;5.15;100.00;101234.56;5093078;28;20039;-74
2024/03/12 03:42:41;;;;;;;56.40;20.55;;;;;;;5.17;100.00;101230.91;5092604;28;20024;-74
2024/03/12 03:45:08;;;;;;;57.45;19.13;;;;;;;5.18;100.00;101232.63;5092928;28;20065;-75
2024/03/12 03:47:36;;;;;;;57.92;20.05;;;;;;;5.18;100.00;101232.63;5093029;28;20028;-75
2024/03/12 03:50:03;;;;;;;53.88;18.60;;;;;;;5.20;100.00;101243.06;5092650;28;20383;-75
2024/03/12 03:52:28;;;;;;;52.97;19.65;;;;;;;5.21;100.00;101242.09;5074639;28;20020;-75
2024/03/12 03:54:54;;;;;;;55.28;20.75;;;;;;;5.20;100.00;101243.91;5092728;28;20031;-76
2024/03/12 03:57:19;;;;;;;49.47;19.35;;;;;;;5.20;100.00;101245.72;5092628;28;20460;-74
2024/03/12 03:59:46;;;;;;;63.22;20.25;;;;;;;5.20;100.00;101251.81;5075237;28;20098;-76
2024/03/12 04:02:12;;;;;;;52.15;19.33;;;;;;;5.23;100.00;101245.50;5092148;28;20028;-76
2024/03/12 04:04:38;;;;;;;46.47;18.60;;;;;;;5.25;100.00;101255.00;5092571;28;20032;-75
2024/03/12 04:07:04;;;;;;;55.40;19.00;;;;;;;5.25;100.00;101251.53;5073991;28;20468;-75
2024/03/12 04:09:30;;;;;;;47.10;18.65;;;;;;;5.24;100.00;101255.97;5092410;28;20104;-74
2024/03/12 04:11:56;;;;;;;58.85;19.05;;;;;;;5.26;100.00;101262.00;5091858;28;20101;-75
2024/03/12 04:14:23;;;;;;;54.97;18.70;;;;;;;5.27;100.00;101266.34;5092146;28;20028;-74
2024/03/12 04:16:48;;;;;;;50.47;17.08;;;;;;;5.29;100.00;101269.72;5092168;28;20028;-75
2024/03/12 04:19:14;;;;;;;59.25;17.77;;;;;;;5.29;100.00;101275.00;5073508;28;20043;-75
2024/03/12 04:21:40;;;;;;;52.70;19.58;;;;;;;5.29;100.00;101279.44;5092422;28;20464;-75
2024/03/12 04:24:06;;;;;;;40.85;16.45;;;;;;;5.26;100.00;101283.09;5092171;28;20032;-75
2024/03/12 04:26:32;;;;;;;55.60;17.88;;;;;;;5.24;100.00;101279.72;5091909;28;20023;-75
2024/03/12 04:28:57;;;;;;;51.53;17.65;;;;;;;5.25;100.00;101284.03;5091885;28;20031;-76
2024/03/12 04:31:23;;;;;;;51.00;17.05;;;;;;;5.25;100.00;101278.75;5091969;28;20380;-75
2024/03/12 04:33:52;;;;;;;57.13;17.90;;;;;;;5.25;100.00;101285.84;5073532;28;20036;-75
2024/03/12 04:36:22;;;;;;;39.70;16.92;;;;;;;5.26;100.00;101293.66;5092040;28;20165;-76
2024/03/12 04:38:50;;;;;;;41.65;16.13;;;;;;;5.26;100.00;101291.03;5091795;28;20063;-75
2024/03/12 04:41:21;;;;;;;41.65;16.63;;;;;;;5.27;100.00;101292.72;5091524;28;20024;-75
2024/03/12 04:43:48;;;;;;;44.30;16.75;;;;;;;5.27;100.00;101300.63;5092016;28;20446;-75
2024/03/12 04:46:13;;;;;;;48.08;17.27;;;;;;;5.27;100.00;101311.19;5091534;28;20093;-76
2024/03/12 04:48:39;;;;;;;52.13;17.13;;;;;;;5.27;100.00;101305.09;5092254;28;20476;-75
2024/03/12 04:51:04;;;;;;;49.30;16.45;;;;;;;5.27;100.00;101305.09;5091654;28;20612;-75
2024/03/12 04:53:30;;;;;;;45.35;15.88;;;;;;;5.27;100.00;101310.34;5073657;28;20160;-75
2024/03/12 04:55:57;;;;;;;52.13;17.00;;;;;;;5.28;100.00;101310.25;5056765;28;20028;-74
2024/03/12 04:58:23;;;;;;;42.08;16.15;;;;;;;5.32;100.00;101318.00;5091906;28;20032;-75
2024/03/12 05:00:49;;;;;;;43.70;16.02;;;;;;;5.31;100.00;101325.03;5091898;28;20112;-74
2024/03/12 05:03:14;;;;;;;43.78;16.92;;;;;;;5.32;100.00;101321.47;5091569;28;20432;-75
2024/03/12 05:05:40;;;;;;;45.28;15.38;;;;;;;5.34;100.00;101321.38;5073648;28;20073;-75
2024/03/12 05:08:06;;;;;;;40.25;15.95;;;;;;;5.39;100.00;101329.84;5092151;28;20103;-75
2024/03/12 05:10:31;;;;;;;33.80;15.15;;;;;;;5.37;100.00;101323.81;5091679;28;20539;-74
2024/03/12 05:12:57;;;;;;;41.20;14.95;;;;;;;5.38;100.00;101323.72;5093106;28;20032;-75
2024/03/12 05:15:23;;;;;;;40.28;14.77;;;;;;;5.39;100.00;101335.13;5095734;28;20352;-75
2024/03/12 05:17:48;;;;;;;46.67;15.15;;;;;;;5.41;100.00;101333.25;5095795;28;20234;-74
2024/03/12 05:20:17;;;;;;;37.08;15.13;;;;;;;5.40;100.00;101337.66;5095509;28;20057;-74
2024/03/12 05:22:46;;;;;;;39.60;13.52;;;;;;;5.41;100.00;101336.72;5077121;28;20028;-74
2024/03/12 05:25:58;;;;;;;35.58;14.73;;;;;;;5.41;100.00;101342.00;5095350;28;20079;-75
2024/03/12 05:27:58;;;;;;;32.17;13.48;;;;;;;5.42;100.00;101345.50;5077529;28;20046;-75
2024/03/12 05:30:23;;;;;;;33.33;14.05;;;;;;;5.40;100.00;101344.75;5077021;28;20019;-75
2024/03/12 05:32:49;;;;;;;35.00;13.63;;;;;;;5.40;100.00;101345.59;5077394;28;20032;-74
2024/03/12 05:35:22;;;;;;;33.35;13.73;;;;;;;5.40;100.00;101350.03;5095311;28;20036;-74
2024/03/12 05:38:07;;;;;;;31.75;13.40;;;;;;;5.42;100.00;101356.91;5077927;28;20032;-74
2024/03/12 05:40:42;;;;;;;39.70;12.80;;;;;;;5.44;100.00;101356.81;5095602;28;20024;-74
2024/03/12 05:48:38;;;;;;;30.67;13.50;;;;;;;5.49;100.00;101367.94;5095912;28;20070;-74
2024/03/12 05:51:03;;;;;;;32.70;13.82;;;;;;;5.49;100.00;101365.28;5076610;28;20032;-74
2024/03/12 05:53:29;;;;;;;36.72;13.43;;;;;;;5.51;100.00;101373.13;5095072;28;20028;-74
2024/03/12 05:55:55;;;;;;;29.20;12.95;;;;;;;5.49;100.00;101375.84;5094735;28;20115;-74
2024/03/12 05:58:21;;;;;;;29.52;13.02;;;;;;;5.48;100.00;101380.28;5076752;28;20475;-74
2024/03/12 06:00:47;;;;;;;41.60;13.05;;;;;;;5.49;100.00;101373.22;5095186;28;20058;-75
2024/03/12 06:03:13;;;;;;;34.70;12.35;;;;;;;5.48;100.00;101385.56;5094774;28;20472;-74
2024/03/12 06:05:38;;;;;;;33.90;13.10;;;;;;;5.49;100.00;101381.13;5094691;28;20035;-74
2024/03/12 06:08:04;;;;;;;31.30;12.70;;;;;;;5.51;100.00;101387.19;5094875;28;20488;-74
2024/03/12 06:10:29;;;;;;;27.80;12.07;;;;;;;5.51;100.00;101387.19;5093951;28;20107;-74
2024/03/12 06:12:55;;;;;;;36.00;13.05;;;;;;;5.51;100.00;101388.97;5093935;28;20032;-74
2024/03/12 06:15:20;;;;;;;22.88;10.73;;;;;;;5.50;100.00;101390.75;5093091;28;20093;-75
2024/03/12 06:17:46;;;;;;;32.85;12.10;;;;;;;5.48;100.00;101398.78;5093273;28;20031;-74
2024/03/12 06:20:15;;;;;;;26.77;11.10;;;;;;;5.45;100.00;101398.13;5093214;28;20028;-75
2024/03/12 06:22:43;;;;;;;28.85;11.93;;;;;;;5.43;100.00;101403.50;5074934;28;20475;-75
2024/03/12 06:25:09;;;;;;;33.22;11.70;;;;;;;5.39;100.00;101401.97;5093032;28;20051;-75
2024/03/12 06:27:34;;;;;;;34.60;11.63;;;;;;;5.35;100.00;101405.72;5093374;28;20059;-74
2024/03/12 06:30:00;;;;;;;34.30;12.20;;;;;;;5.31;100.00;101406.84;5093108;28;20401;-74
2024/03/12 06:32:31;;;;;;;29.50;11.85;;;;;;;5.28;100.00;101407.03;5093011;28;20032;-73
2024/03/12 06:34:57;;;;;;;33.35;12.48;;;;;;;5.21;100.00;101405.69;5093213;28;20032;-73
2024/03/12 06:37:27;;;;;;;30.02;12.60;;;;;;;5.19;100.00;101413.69;5093051;28;20485;-73
2024/03/12 06:39:53;;;;;;;31.73;12.00;;;;;;;5.15;100.00;101414.84;5093228;28;20028;-74
2024/03/12 06:42:25;;;;;;;31.48;12.77;;;;;;;5.12;100.00;101415.84;5092876;28;20188;-74
2024/03/12 06:44:52;;;;;;;30.15;13.02;;;;;;;5.10;100.00;101419.50;5074984;28;20036;-74
2024/03/12 06:47:19;;;;;;;32.72;13.27;;;;;;;5.12;100.00;101415.00;5092964;28;20024;-73
2024/03/12 06:49:45;;;;;;;33.97;13.27;;;;;;;5.11;100.00;101429.13;5092856;28;20122;-74
2024/03/12 06:52:22;;;;;;;36.53;13.35;;;;;;;5.11;100.00;101431.78;5074337;28;20352;-73
2024/03/12 06:54:48;;;;;;;33.42;13.43;;;;;;;5.12;100.00;101430.84;5092383;28;20024;-74
2024/03/12 06:57:14;;;;;;;43.35;13.25;;;;;;;5.13;100.00;101421.97;5092487;28;20032;-74
2024/03/12 06:59:47;;;;;;;32.35;13.70;;;;;;;5.15;100.00;101427.16;5073974;28;20510;-74
2024/03/12 07:02:15;;;;;;;29.40;12.82;;;;;;;5.15;100.00;101430.66;5092708;28;20054;-72
2024/03/12 07:04:46;;;;;;;33.42;14.07;;;;;;;5.18;100.00;101432.25;5091986;28;20452;-72
2024/03/12 07:07:13;;;;;;;41.08;14.82;;;;;;;5.24;100.00;101431.88;5092463;28;20028;-72
2024/03/12 07:09:40;;;;;;;33.38;14.98;;;;;;;5.24;100.00;101432.75;5092143;28;20392;-73
2024/03/12 07:12:08;;;;;;;35.85;15.18;;;;;;;5.25;100.00;101436.22;5065271;28;258520;-72
2024/03/12 07:14:41;;;;;;;39.58;14.60;;;;;;;5.29;100.00;101443.03;5074618;28;20503;-72
2024/03/12 07:17:07;;;;;;;33.65;15.30;;;;;;;5.33;100.00;101443.69;5093859;28;20040;-73
2024/03/12 07:19:37;;;;;;;26.98;13.52;;;;;;;5.38;100.00;101447.75;5093353;28;20055;-73
2024/03/12 07:22:07;;;;;;;32.45;14.45;;;;;;;5.40;100.00;101443.22;5093409;28;20077;-73
2024/03/12 07:24:33;;;;;;;32.70;14.57;;;;;;;5.42;100.00;101446.66;5092628;28;20023;-73
2024/03/12 07:26:59;;;;;;;30.00;14.27;;;;;;;5.45;100.00;101445.63;5092628;28;20030;-73
2024/03/12 07:29:25;;;;;;;30.60;14.75;;;;;;;5.50;100.00;101440.06;5092908;28;20028;-73
2024/03/12 07:31:51;;;;;;;43.17;15.68;;;;;;;5.52;100.00;101449.56;5092519;28;20393;-73
2024/03/12 07:34:17;;;;;;;34.45;14.10;;;;;;;5.53;100.00;101437.25;5092473;28;20024;-73
2024/03/12 07:36:43;;;;;;;49.10;15.38;;;;;;;5.53;100.00;101453.09;5073154;28;20436;-73
2024/03/12 07:39:24;;;;;;;27.85;13.77;;;;;;;5.54;100.00;101445.06;5074407;28;20061;-73
2024/03/12 07:41:53;;;;;;;36.03;14.10;;;;;;;5.56;100.00;101453.75;5092809;28;20088;-73
2024/03/12 07:44:19;;;;;;;27.42;14.13;;;;;;;5.56;100.00;101453.75;5074046;28;20024;-73
2024/03/12 07:46:45;;;;;;;30.77;14.68;;;;;;;5.61;100.00;101461.38;5074794;28;20124;-73
2024/03/12 07:49:11;;;;;;;34.50;15.68;;;;;;;5.62;100.00;101455.16;5092630;28;20395;-73
2024/03/12 07:51:37;;;;;;;41.38;15.07;;;;;;;5.65;100.00;101460.25;5092033;28;20482;-73
2024/03/12 07:54:06;;;;;;;29.15;14.13;;;;;;;5.67;100.00;101457.53;5057366;28;20032;-74
2024/03/12 07:56:32;;;;;;;30.48;14.68;;;;;;;5.68;100.00;101459.25;5092762;28;20554;-73
2024/03/12 07:58:58;;;;;;;37.80;14.80;;;;;;;5.72;100.00;101464.25;5092680;28;20045;-74
2024/03/12 08:01:26;;;;;;;25.33;14.00;;;;;;;5.77;100.00;101466.59;5092392;28;20070;-76
2024/03/12 08:03:52;;;;;;;34.95;13.75;;;;;;;5.81;100.00;101465.47;5074605;28;20460;-74
2024/03/12 08:06:18;;;;;;;27.10;13.23;;;;;;;5.83;100.00;101467.06;5074149;28;20031;-73
2024/03/12 08:08:44;;;;;;;28.23;13.60;;;;;;;5.92;100.00;101473.59;5073926;28;20032;-73
2024/03/12 08:11:09;;;;;;;28.77;13.77;;;;;;;5.96;100.00;101477.75;5092247;28;20523;-72
2024/03/12 08:13:35;;;;;;;29.67;13.52;;;;;;;6.04;100.00;101477.31;5092427;28;20032;-73
2024/03/12 08:16:00;;;;;;;29.17;13.30;;;;;;;6.08;100.00;101476.19;5074344;28;20051;-73
2024/03/12 08:18:26;;;;;;;27.95;12.73;;;;;;;6.21;100.00;101473.66;5092154;28;20098;-74
2024/03/12 08:20:52;;;;;;;30.83;12.60;;;;;;;6.29;100.00;101474.00;5092186;28;20035;-72
2024/03/12 08:23:19;;;;;;;24.30;12.98;;;;;;;6.40;100.00;101477.78;5092308;28;20032;-73
2024/03/12 08:25:46;;;;;;;26.95;12.82;;;;;;;6.50;100.00;101478.88;5092466;28;20111;-74
2024/03/12 08:28:12;;;;;;;24.92;12.95;;;;;;;6.56;100.00;101475.00;5092109;28;20165;-73
2024/03/12 08:30:37;;;;;;;30.73;13.18;;;;;;;6.62;100.00;101470.16;5092049;28;20137;-74
2024/03/12 08:33:03;;;;;;;31.25;13.35;;;;;;;6.71;100.00;101474.03;5057304;28;20031;-73
2024/03/12 08:35:29;;;;;;;24.38;12.52;;;;;;;6.80;100.00;101469.94;5092106;28;20035;-74
2024/03/12 08:37:55;;;;;;;28.55;11.80;;;;;;;6.87;100.00;101473.91;5092580;28;20028;-73
2024/03/12 08:40:20;;;;;;;24.35;11.85;;;;;;;6.92;100.00;101476.25;5074196;28;20031;-74
2024/03/12 08:42:45;;;;;;;21.58;11.88;;;;;;;6.98;100.00;101475.84;5092375;28;20063;-74
2024/03/12 08:45:14;;;;;;;19.95;11.43;;;;;;;7.10;100.00;101472.38;5092793;28;20030;-73
2024/03/12 08:47:40;;;;;;;27.50;12.40;;;;;;;7.17;100.00;101476.31;5074650;28;20157;-73
2024/03/12 08:50:07;;;;;;;20.70;11.93;;;;;;;7.15;100.00;101472.94;5092523;28;20115;-72
2024/03/12 08:52:35;;;;;;;23.40;12.65;;;;;;;7.21;100.00;101472.53;5092707;28;20031;-73
2024/03/12 08:55:01;;;;;;;28.98;12.95;;;;;;;7.23;100.00;101475.91;5092554;28;20024;-72
2024/03/12 08:57:26;;;;;;;28.20;12.93;;;;;;;7.15;100.00;101478.22;5092472;28;20044;-72
2024/03/12 08:59:51;;;;;;;23.42;13.05;;;;;;;7.14;100.00;101476.53;5092251;28;20035;-72
2024/03/12 09:02:18;;;;;;;24.35;12.82;;;;;;;7.14;100.00;101480.97;5092291;28;20055;-73
2024/03/12 09:04:44;;;;;;;24.75;13.63;;;;;;;7.14;100.00;101479.16;5092567;28;20034;-73
2024/03/12 09:07:09;;;;;;;27.10;13.20;;;;;;;7.11;100.00;101482.03;5092285;28;20023;-73
2024/03/12 09:09:34;;;;;;;31.30;14.38;;;;;;;7.10;100.00;101484.78;5092216;28;20056;-72
2024/03/12 09:12:00;;;;;;;26.23;15.13;;;;;;;7.12;100.00;101485.50;5092070;28;20044;-72
2024/03/12 09:14:25;;;;;;;27.13;14.35;;;;;;;7.16;100.00;101481.72;5092826;28;20372;-72
2024/03/12 09:16:51;;;;;;;28.67;14.38;;;;;;;7.18;100.00;101485.97;5092088;28;20025;-71
2024/03/12 09:19:17;;;;;;;30.98;14.70;;;;;;;7.29;100.00;101487.91;5092281;28;20020;-72
2024/03/12 09:21:43;;;;;;;25.77;14.45;;;;;;;7.33;100.00;101484.09;5074456;28;20489;-72
2024/03/12 09:24:09;;;;;;;30.70;15.60;;;;;;;7.36;100.00;101489.19;5092177;28;20051;-72
2024/03/12 09:26:35;;;;;;;37.05;16.33;;;;;;;7.35;100.00;101484.84;5092322;28;20020;-71
2024/03/12 09:29:01;;;;;;;30.95;15.75;;;;;;;7.39;100.00;101488.97;5091966;28;20036;-73
2024/03/12 09:31:27;;;;;;;29.27;15.30;;;;;;;7.39;100.00;101493.44;5092081;28;20051;-73
2024/03/12 09:33:54;;;;;;;32.92;15.90;;;;;;;7.41;100.00;101491.53;5091936;28;20081;-71
2024/03/12 09:36:20;;;;;;;32.17;16.48;;;;;;;7.49;100.00;101496.31;5092231;28;20107;-72
2024/03/12 09:38:47;;;;;;;33.40;16.13;;;;;;;7.57;100.00;101489.53;5092378;28;20061;-72
2024/03/12 09:41:16;;;;;;;30.83;17.02;;;;;;;7.67;100.00;101495.06;5091877;28;20494;-73
2024/03/12 09:43:43;;;;;;;30.40;16.70;;;;;;;7.82;100.00;101497.63;5091867;28;20027;-74
2024/03/12 09:46:13;;;;;;;30.63;16.02;;;;;;;8.02;100.00;101490.97;5092291;28;20113;-71
2024/03/12 09:48:39;;;;;;;33.40;16.40;;;;;;;8.23;100.00;101499.22;5091791;28;20024;-72
2024/03/12 09:51:08;;;;;;;35.13;16.27;;;;;;;8.47;100.00;101492.19;5091924;28;20095;-72
2024/03/12 09:53:34;;;;;;;31.77;17.30;;;;;;;8.73;100.00;101489.50;5092022;28;20035;-72
2024/03/12 09:56:03;;;;;;;30.42;16.33;;;;;;;9.09;100.00;101487.75;5091711;28;20032;-72
2024/03/12 09:58:29;;;;;;;27.83;16.13;;;;;;;9.70;100.00;101481.41;5073533;28;20047;-72
2024/03/12 10:00:55;;;;;;;29.92;15.77;;;;;;;10.82;100.00;101492.19;5095250;28;20125;-72
2024/03/12 10:03:20;;;;;;;28.90;15.70;;;;;;;11.59;100.00;101494.69;5077119;28;20028;-72
2024/03/12 10:05:46;;;;;;;27.85;15.52;;;;;;;11.24;100.00;101498.50;5095818;28;20028;-72
2024/03/12 10:08:14;;;;;;;32.60;16.25;;;;;;;11.16;100.00;101495.59;5077119;28;20494;-72
2024/03/12 10:10:43;;;;;;;28.50;15.80;;;;;;;10.93;100.00;101497.50;5094956;28;20063;-72
2024/03/12 10:13:15;;;;;;;25.20;15.43;;;;;;;10.72;100.00;101494.78;5095081;28;20016;-72
2024/03/12 10:15:56;;;;;;;30.20;16.48;;;;;;;10.37;100.00;101491.28;5095026;28;20123;-72
2024/03/12 10:18:24;;;;;;;26.95;16.08;;;;;;;10.30;100.00;101490.06;5077376;28;20032;-72
2024/03/12 10:20:55;;;;;;;30.38;16.08;;;;;;;10.10;100.00;101488.97;5095133;28;20110;-72
2024/03/12 10:23:25;;;;;;;26.30;15.57;;;;;;;9.77;100.00;101493.28;5094991;28;20468;-72
2024/03/12 10:25:52;;;;;;;25.42;16.10;;;;;;;9.79;100.00;101480.72;5094939;28;20024;-72
2024/03/12 10:28:27;;;;;;;30.55;15.65;;;;;;;9.92;100.00;101475.28;5094878;28;20032;-72
2024/03/12 10:31:03;;;;;;;30.58;16.58;;;;;;;9.84;100.00;101481.22;5095292;28;20380;-72
2024/03/12 10:33:30;;;;;;;26.92;15.52;;;;;;;9.72;100.00;101484.81;5095239;28;20052;-72
2024/03/12 10:35:56;;;;;;;28.77;16.05;;;;;;;9.58;100.00;101475.22;5095064;28;20095;-71
2024/03/12 10:38:27;;;;;;;28.98;16.13;;;;;;;9.59;100.00;101476.09;5076510;28;20032;-73
2024/03/12 10:40:56;;;;;;;27.95;15.32;;;;;;;9.80;100.00;101474.44;5094602;28;20028;-71
2024/03/12 10:43:26;;;;;;;28.70;15.63;;;;;;;10.28;100.00;101480.50;5076417;28;20030;-71
2024/03/12 10:45:55;;;;;;;29.52;15.25;;;;;;;10.92;100.00;101477.16;5094960;28;20020;-71
2024/03/12 10:48:21;;;;;;;29.42;15.50;;;;;;;11.22;100.00;101468.44;5094489;28;20119;-71
2024/03/12 10:50:51;;;;;;;31.25;16.55;;;;;;;11.35;100.00;101478.09;5094331;28;20059;-71
2024/03/12 10:53:17;;;;;;;27.42;15.35;;;;;;;11.55;100.00;101476.41;5076309;28;20480;-71
2024/03/12 10:55:43;;;;;;;28.02;16.60;;;;;;;11.62;100.00;101477.59;5094224;28;20031;-72
2024/03/12 10:58:09;;;;;;;29.02;16.77;;;;;;;11.68;100.00;101466.41;5094752;28;20024;-72
2024/03/12 11:00:41;;;;;;;29.00;17.05;;;;;;;11.50;100.00;101479.47;5094320;28;20032;-72
2024/03/12 11:03:10;;;;;;;33.25;16.77;;;;;;;11.49;100.00;101479.59;5094582;28;20370;-72
2024/03/12 11:05:35;;;;;;;30.88;16.95;;;;;;;11.62;100.00;101474.91;5094300;28;20046;-71
2024/03/12 11:08:01;;;;;;;31.88;16.63;;;;;;;11.56;100.00;101470.13;5094133;28;20084;-72
2024/03/12 11:10:32;;;;;;;33.22;16.73;;;;;;;11.50;100.00;101474.13;5093280;28;20432;-72
2024/03/12 11:13:01;;;;;;;34.92;17.70;;;;;;;11.51;100.00;101474.97;5094079;28;20028;-72